Skip to content

SRH EETN

  • This topic is empty.
Viewing 2 reply threads
  • Author
    Posts
    • #8910

      SRH on huonon sään johdosta Tallinnassa. Yritän lentää sen huomenna kotiin.

      Juha Salminen 040 508 7054

    • #9723

      Tilanne Tallinnassa

      Harmaja 151310Z AUTO 09017KT 3400 -RA FEW003 SCT005 BKN007 18/17 Q1015

      RMK QFE1015=

      Vallitseva saa on niin surkea ja ennusteet epavarmat, joudun jattamaan koneen tallinnaan.

      Lisatietoja allekirjoittaneelta ja puheenjohtajalta

      Innokas hakija voi ilmottautua

      Juha Salminen

      p. 040 508 7054

    • #9724

      Kone näytti seisovan Malmin hallissa hienosta lentosäästä huolimatta.

Viewing 2 reply threads
  • You must be logged in to reply to this topic.

Aihe: .